createdAt,value
2024-04-12T00:02:05.919Z,98963.90
2024-04-12T00:04:36.456Z,98961.23
2024-04-12T00:07:14.961Z,98962.70
2024-04-12T00:09:44.581Z,98963.30
2024-04-12T00:12:13.344Z,98962.77
2024-04-12T00:14:45.223Z,98963.90
2024-04-12T00:17:17.138Z,98964.36
2024-04-12T00:19:47.041Z,98959.27
2024-04-12T00:22:15.594Z,98960.86
2024-04-12T00:24:43.907Z,98961.58
2024-04-12T00:27:16.447Z,98962.56
2024-04-12T00:29:47.307Z,98959.21
2024-04-12T00:32:17.510Z,98960.96
2024-04-12T00:34:52.732Z,98958.19
2024-04-12T00:37:22.191Z,98957.72
2024-04-12T00:39:51.769Z,98954.54
2024-04-12T00:42:27.920Z,98956.79
2024-04-12T00:44:59.197Z,98957.11
2024-04-12T00:47:33.544Z,98957.52
2024-04-12T00:50:05.522Z,98961.57
2024-04-12T00:52:36.839Z,98964.60
2024-04-12T00:55:10.610Z,98965.14
2024-04-12T00:57:42.436Z,98967.11
2024-04-12T01:00:20.685Z,98971.39
2024-04-12T01:02:50.613Z,98966.02
2024-04-12T01:05:20.705Z,98962.21
2024-04-12T01:07:56.833Z,98967.11
2024-04-12T01:10:27.334Z,98959.13
2024-04-12T01:12:59.278Z,98958.58
2024-04-12T01:15:39.019Z,98958.79
2024-04-12T01:18:16.550Z,98955.82
2024-04-12T01:20:46.707Z,98960.58
2024-04-12T01:23:18.543Z,98958.39
2024-04-12T01:25:47.056Z,98958.52
2024-04-12T01:28:17.188Z,98954.40
2024-04-12T01:30:47.503Z,98956.14
2024-04-12T01:33:16.116Z,98958.77
2024-04-12T01:35:45.944Z,98957.55
2024-04-12T01:38:21.302Z,98960.73
2024-04-12T01:41:00.349Z,98956.99
2024-04-12T01:43:32.307Z,98956.45
2024-04-12T01:46:00.269Z,98952.27
2024-04-12T01:48:30.373Z,98956.34
2024-04-12T01:50:58.627Z,98952.66
2024-04-12T01:53:28.215Z,98958.75
2024-04-12T01:55:56.244Z,98957.61
2024-04-12T01:58:24.720Z,98957.79
2024-04-12T02:00:53.232Z,98959.66
2024-04-12T02:03:22.747Z,98955.27
2024-04-12T02:05:51.330Z,98959.45
2024-04-12T02:08:20.077Z,98958.27
2024-04-12T02:10:50.061Z,98961.59
2024-04-12T02:13:20.261Z,98963.41
2024-04-12T02:15:50.639Z,98962.64
2024-04-12T02:18:23.297Z,98964.27
2024-04-12T02:20:54.292Z,98957.33
2024-04-12T02:23:24.295Z,98951.78
2024-04-12T02:25:52.475Z,98957.50
2024-04-12T02:28:20.689Z,98961.70
2024-04-12T02:30:58.216Z,98961.04
2024-04-12T02:33:34.080Z,98961.16
2024-04-12T02:36:17.896Z,98965.14
2024-04-12T02:38:53.042Z,98962.23
2024-04-12T02:41:21.419Z,98962.95
2024-04-12T02:43:53.231Z,98963.20
2024-04-12T02:46:23.338Z,98961.88
2024-04-12T02:48:52.226Z,98961.86
2024-04-12T02:51:23.040Z,98966.11
2024-04-12T02:53:52.431Z,98964.44
2024-04-12T02:56:25.156Z,98968.33
2024-04-12T02:58:55.167Z,98963.69
2024-04-12T03:01:25.343Z,98964.20
2024-04-12T03:03:57.603Z,98965.67
2024-04-12T03:06:29.088Z,98963.40
2024-04-12T03:09:07.051Z,98963.48
2024-04-12T03:11:36.195Z,98966.33
2024-04-12T03:14:10.243Z,98971.77
2024-04-12T03:16:43.633Z,98972.52
2024-04-12T03:19:15.260Z,98974.52
2024-04-12T03:21:43.474Z,98974.09
2024-04-12T03:24:12.453Z,98973.80
2024-04-12T03:26:44.334Z,98980.37
2024-04-12T03:29:13.506Z,98979.52
2024-04-12T03:31:41.728Z,98982.45
2024-04-12T03:34:10.173Z,98982.26
2024-04-12T03:36:40.139Z,98977.11
2024-04-12T03:39:19.566Z,98979.56
2024-04-12T03:42:07.591Z,98979.77
2024-04-12T03:44:38.113Z,98982.52
2024-04-12T03:47:12.912Z,98983.16
2024-04-12T03:49:44.433Z,98988.85
2024-04-12T03:52:15.453Z,98996.39
2024-04-12T03:54:47.346Z,98997.60
2024-04-12T03:57:17.141Z,99002.16
2024-04-12T03:59:46.630Z,99002.88
2024-04-12T04:02:17.323Z,99002.39
2024-04-12T04:04:47.538Z,99011.76
2024-04-12T04:07:18.721Z,99011.58
2024-04-12T04:09:48.632Z,99015.55
2024-04-12T04:12:17.917Z,99016.33
2024-04-12T04:14:51.604Z,99024.62
2024-04-12T04:17:30.330Z,99023.41
2024-04-12T04:19:59.112Z,99025.62
2024-04-12T04:22:30.250Z,99021.40
2024-04-12T04:24:58.217Z,99022.30
2024-04-12T04:27:26.312Z,99015.53
2024-04-12T04:29:57.906Z,99013.55
2024-04-12T04:32:28.043Z,99013.62
2024-04-12T04:35:10.669Z,99015.33
2024-04-12T04:37:40.492Z,99013.45
2024-04-12T04:40:13.220Z,99011.19
2024-04-12T04:42:44.305Z,99017.91
2024-04-12T04:45:19.023Z,99015.30
2024-04-12T04:47:47.529Z,99015.61
2024-04-12T04:50:21.010Z,99022.48
2024-04-12T04:52:51.419Z,99030.48
2024-04-12T04:55:20.453Z,99031.35
2024-04-12T04:57:55.948Z,99025.48
2024-04-12T05:00:25.908Z,99028.05
2024-04-12T05:02:55.604Z,99034.48
2024-04-12T05:05:27.105Z,99032.42
2024-04-12T05:07:57.361Z,99029.63
2024-04-12T05:10:26.892Z,99028.30
2024-04-12T05:12:55.909Z,99034.77
2024-04-12T05:15:42.714Z,99037.46
2024-04-12T05:18:14.707Z,99044.02
2024-04-12T05:20:44.585Z,99046.92
2024-04-12T05:23:14.457Z,99044.21
2024-04-12T05:25:52.932Z,99041.23
2024-04-12T05:28:21.576Z,99039.27
2024-04-12T05:30:51.306Z,99038.68
2024-04-12T05:33:21.039Z,99037.95
2024-04-12T05:35:50.217Z,99042.52
2024-04-12T05:38:22.947Z,99044.23
2024-04-12T05:40:55.504Z,99044.11
2024-04-12T05:43:24.122Z,99041.66
2024-04-12T05:45:54.574Z,99041.20
2024-04-12T05:48:24.373Z,99040.39
2024-04-12T05:50:55.733Z,99041.02
2024-04-12T05:53:26.110Z,99041.56
2024-04-12T05:56:13.982Z,99042.25
2024-04-12T05:58:42.530Z,99044.50
2024-04-12T06:01:12.221Z,99037.87
2024-04-12T06:03:56.188Z,99037.55
2024-04-12T06:06:26.049Z,99038.52
2024-04-12T06:08:55.132Z,99038.48
2024-04-12T06:11:26.309Z,99031.38
2024-04-12T06:13:56.371Z,99030.71
2024-04-12T06:16:25.620Z,99026.46
2024-04-12T06:18:54.312Z,99025.55
2024-04-12T06:21:23.587Z,99027.98
2024-04-12T06:23:56.315Z,99030.73
2024-04-12T06:26:24.748Z,99026.14
2024-04-12T06:28:58.212Z,99027.73
2024-04-12T06:31:35.477Z,99026.31
2024-04-12T06:34:13.565Z,99024.89
2024-04-12T06:36:46.672Z,99027.70
2024-04-12T06:39:16.828Z,99027.34
2024-04-12T06:41:46.786Z,99026.36
2024-04-12T06:44:20.837Z,99021.56
2024-04-12T06:46:53.175Z,99018.94
2024-04-12T06:49:28.309Z,99018.52
2024-04-12T06:52:21.465Z,99018.45
2024-04-12T06:54:49.767Z,99015.27
2024-04-12T06:57:20.049Z,99014.02
2024-04-12T06:59:49.221Z,99012.77
2024-04-12T07:02:24.834Z,99009.80
2024-04-12T07:04:57.937Z,99012.06
2024-04-12T07:07:29.229Z,99011.12
2024-04-12T07:10:00.964Z,99012.36
2024-04-12T07:12:32.123Z,99013.38
2024-04-12T07:15:01.632Z,99014.42
2024-04-12T07:17:30.016Z,99016.52
2024-04-12T07:20:01.576Z,99009.85
2024-04-12T07:22:30.356Z,99008.52
2024-04-12T07:25:00.645Z,99009.29
2024-04-12T07:27:29.609Z,99006.78
2024-04-12T07:29:59.255Z,99009.86
2024-04-12T07:32:37.070Z,99006.75
2024-04-12T07:35:23.766Z,99005.66
2024-04-12T07:37:58.486Z,99008.42
2024-04-12T07:40:33.328Z,99003.36
2024-04-12T07:43:09.558Z,99001.73
2024-04-12T07:45:40.283Z,98997.27
2024-04-12T07:48:22.152Z,98994.20
2024-04-12T07:51:00.997Z,98989.30
2024-04-12T07:53:35.643Z,98986.94
2024-04-12T07:56:11.010Z,98986.85
2024-04-12T07:58:41.896Z,98984.41
2024-04-12T08:01:18.010Z,98981.71
2024-04-12T08:04:06.577Z,98980.98
2024-04-12T08:06:39.098Z,98978.45
2024-04-12T08:09:22.201Z,98982.09
2024-04-12T08:11:53.220Z,98980.92
2024-04-12T08:14:23.167Z,98979.35
2024-04-12T08:16:55.104Z,98982.41
2024-04-12T08:19:23.924Z,98977.33
2024-04-12T08:21:56.355Z,98973.88
2024-04-12T08:24:24.862Z,98968.48
2024-04-12T08:26:54.214Z,98966.94
2024-04-12T08:29:27.811Z,98966.17
2024-04-12T08:32:12.447Z,98964.33
2024-04-12T08:34:44.037Z,98955.08
2024-04-12T08:37:17.727Z,98950.08
2024-04-12T08:39:54.718Z,98950.80
2024-04-12T08:42:30.419Z,98947.55
2024-04-12T08:45:00.577Z,98948.29
2024-04-12T08:47:32.287Z,98945.73
2024-04-12T08:50:05.034Z,98942.85
2024-04-12T08:52:49.969Z,98941.52
2024-04-12T08:55:22.036Z,98943.18
2024-04-12T08:57:57.790Z,98936.27
2024-04-12T09:00:35.601Z,98932.51
2024-04-12T09:03:12.740Z,98928.30
2024-04-12T09:05:43.916Z,98923.06
2024-04-12T09:08:18.594Z,98916.39
2024-04-12T09:10:47.350Z,98913.63
2024-04-12T09:13:16.694Z,98914.51
2024-04-12T09:15:47.382Z,98912.83
2024-04-12T09:18:17.335Z,98916.08
2024-04-12T09:20:53.480Z,98909.27
2024-04-12T09:23:34.685Z,98908.92
2024-04-12T09:26:27.215Z,98907.67
2024-04-12T09:29:10.830Z,98907.41
2024-04-12T09:31:59.182Z,98912.69
2024-04-12T09:34:36.733Z,98911.42
2024-04-12T09:37:27.553Z,98912.78
2024-04-12T09:40:01.044Z,98908.45
2024-04-12T09:42:47.535Z,98906.44
2024-04-12T09:45:20.877Z,98904.23
2024-04-12T09:48:09.156Z,98905.66
2024-04-12T09:50:56.337Z,98907.25
2024-04-12T09:53:43.629Z,98905.44
2024-04-12T09:56:34.417Z,98896.23
2024-04-12T09:59:29.765Z,98909.41
2024-04-12T10:02:16.388Z,98906.05
2024-04-12T10:05:08.548Z,98899.56
2024-04-12T10:07:57.977Z,98902.24
2024-04-12T10:10:48.939Z,98895.20
2024-04-12T10:13:36.434Z,98887.33
2024-04-12T10:16:23.443Z,98889.48
2024-04-12T10:19:19.315Z,98888.83
2024-04-12T10:22:06.089Z,98883.80
2024-04-12T10:24:52.942Z,98876.98
2024-04-12T10:27:39.659Z,98871.17
2024-04-12T10:30:29.635Z,98868.50
2024-04-12T10:33:20.720Z,98863.58
2024-04-12T10:36:08.852Z,98863.58
2024-04-12T10:38:46.361Z,98860.73
2024-04-12T10:41:16.748Z,98858.05
2024-04-12T10:43:44.684Z,98851.73
2024-04-12T10:46:13.427Z,98856.16
2024-04-12T10:48:45.190Z,98853.83
2024-04-12T10:51:16.286Z,98849.98
2024-04-12T10:53:44.816Z,98853.34
2024-04-12T10:56:19.912Z,98845.86
2024-04-12T10:58:53.543Z,98845.38
2024-04-12T11:01:24.175Z,98844.44
2024-04-12T11:04:00.405Z,98846.09
2024-04-12T11:06:33.757Z,98845.59
2024-04-12T11:09:06.488Z,98837.29
2024-04-12T11:11:39.985Z,98838.73
2024-04-12T11:14:16.978Z,98833.88
2024-04-12T11:17:07.955Z,98836.31
2024-04-12T11:19:56.902Z,98837.55
2024-04-12T11:22:47.604Z,98824.06
2024-04-12T11:25:34.280Z,98823.09
2024-04-12T11:28:24.763Z,98820.83
2024-04-12T11:31:16.273Z,98815.38
2024-04-12T11:34:01.060Z,98822.26
2024-04-12T11:36:40.837Z,98816.33
2024-04-12T11:39:20.033Z,98808.58
2024-04-12T11:41:49.077Z,98805.89
2024-04-12T11:44:19.831Z,98807.42
2024-04-12T11:46:49.938Z,98812.08
2024-04-12T11:49:28.356Z,98807.17
2024-04-12T11:51:58.365Z,98800.64
2024-04-12T11:54:31.109Z,98803.30
2024-04-12T11:57:06.727Z,98801.34
2024-04-12T11:59:35.831Z,98800.61
2024-04-12T12:02:06.237Z,98806.64
2024-04-12T12:04:34.903Z,98805.05
2024-04-12T12:07:06.957Z,98801.80
2024-04-12T12:09:39.261Z,98799.08
2024-04-12T12:12:12.733Z,98801.06
2024-04-12T12:14:45.249Z,98797.18
2024-04-12T12:17:19.654Z,98792.66
2024-04-12T12:19:53.068Z,98785.61
2024-04-12T12:22:22.846Z,98788.86
2024-04-12T12:24:52.271Z,98782.34
2024-04-12T12:27:21.509Z,98781.20
2024-04-12T12:29:52.545Z,98775.83
2024-04-12T12:32:27.105Z,98765.67
2024-04-12T12:34:55.951Z,98767.44
2024-04-12T12:37:25.608Z,98763.58
2024-04-12T12:39:53.661Z,98761.09
2024-04-12T12:42:22.742Z,98753.90
2024-04-12T12:44:50.831Z,98754.89
2024-04-12T12:47:21.830Z,98754.95
2024-04-12T12:49:54.292Z,98753.21
2024-04-12T12:52:23.560Z,98756.35
2024-04-12T12:54:51.672Z,98753.43
2024-04-12T12:57:19.859Z,98751.57
2024-04-12T12:59:47.901Z,98748.38
2024-04-12T13:02:16.936Z,98751.05
2024-04-12T13:04:47.967Z,98749.08
2024-04-12T13:07:18.629Z,98742.94
2024-04-12T13:09:54.721Z,98744.23
2024-04-12T13:12:29.551Z,98740.08
2024-04-12T13:14:59.242Z,98744.90
2024-04-12T13:17:27.708Z,98738.67
2024-04-12T13:19:58.013Z,98739.25
2024-04-12T13:22:25.892Z,98736.83
2024-04-12T13:24:54.303Z,98738.84
2024-04-12T13:27:24.823Z,98731.88
2024-04-12T13:29:53.255Z,98729.11
2024-04-12T13:32:21.361Z,98726.87
2024-04-12T13:34:49.526Z,98722.86
2024-04-12T13:37:21.846Z,98720.56
2024-04-12T13:39:50.199Z,98722.48
2024-04-12T13:42:21.641Z,98721.10
2024-04-12T13:45:08.686Z,98722.94
2024-04-12T13:47:55.858Z,98711.05
2024-04-12T13:50:42.660Z,98712.36
2024-04-12T13:53:10.653Z,98709.16
2024-04-12T13:55:40.295Z,98711.34
2024-04-12T13:58:08.495Z,98713.80
2024-04-12T14:00:37.791Z,98702.91
2024-04-12T14:03:16.302Z,98704.10
2024-04-12T14:05:47.362Z,98708.19
2024-04-12T14:08:21.929Z,98705.17
2024-04-12T14:10:49.954Z,98705.20
2024-04-12T14:13:18.261Z,98707.31
2024-04-12T14:15:50.336Z,98698.35
2024-04-12T14:18:18.654Z,98699.50
2024-04-12T14:20:46.658Z,98691.81
2024-04-12T14:23:14.565Z,98693.48
2024-04-12T14:25:42.473Z,98693.85
2024-04-12T14:28:11.905Z,98691.30
2024-04-12T14:30:39.933Z,98689.09
2024-04-12T14:33:08.668Z,98687.19
2024-04-12T14:35:42.700Z,98688.31
2024-04-12T14:38:10.901Z,98685.27
2024-04-12T14:40:38.812Z,98684.93
2024-04-12T14:43:06.866Z,98686.84
2024-04-12T14:45:36.260Z,98687.64
2024-04-12T14:48:09.595Z,98685.59
2024-04-12T14:50:43.426Z,98688.81
2024-04-12T14:53:11.525Z,98684.94
2024-04-12T14:55:39.998Z,98683.66
2024-04-12T14:58:08.677Z,98683.06
2024-04-12T15:00:36.811Z,98683.89
2024-04-12T15:03:24.072Z,98683.02
2024-04-12T15:06:11.977Z,98683.07
2024-04-12T15:08:59.731Z,98680.49
2024-04-12T15:11:46.589Z,98680.29
2024-04-12T15:14:37.487Z,98679.70
2024-04-12T15:17:26.255Z,98678.73
2024-04-12T15:20:13.044Z,98672.96
2024-04-12T15:22:59.886Z,98672.81
2024-04-12T15:25:46.658Z,98676.94
2024-04-12T15:28:33.390Z,98676.65
2024-04-12T15:31:20.235Z,98675.41
2024-04-12T15:34:07.224Z,98676.84
2024-04-12T15:36:53.845Z,98674.10
2024-04-12T15:39:40.526Z,98681.91
2024-04-12T15:42:27.267Z,98684.12
2024-04-12T15:45:14.036Z,98687.78
2024-04-12T15:47:42.093Z,98689.67
2024-04-12T15:50:13.472Z,98694.64
2024-04-12T15:52:43.476Z,98691.85
2024-04-12T15:55:21.808Z,98688.14
2024-04-12T15:58:08.446Z,98689.47
2024-04-12T16:00:55.300Z,98687.42
2024-04-12T16:03:42.166Z,98695.98
2024-04-12T16:06:29.034Z,98694.79
2024-04-12T16:09:15.858Z,98702.27
2024-04-12T16:11:44.058Z,98697.38
2024-04-12T16:14:12.050Z,98703.10
2024-04-12T16:16:40.113Z,98706.36
2024-04-12T16:19:07.994Z,98702.71
2024-04-12T16:21:36.171Z,98704.95
2024-04-12T16:24:04.409Z,98704.83
2024-04-12T16:26:32.520Z,98707.83
2024-04-12T16:29:00.366Z,98707.41
2024-04-12T16:31:28.489Z,98711.09
2024-04-12T16:33:57.363Z,98713.37
2024-04-12T16:36:26.339Z,98714.04
2024-04-12T16:38:54.702Z,98715.58
2024-04-12T16:41:23.872Z,98719.30
2024-04-12T16:43:51.861Z,98714.77
2024-04-12T16:46:20.095Z,98712.13
2024-04-12T16:48:48.050Z,98713.81
2024-04-12T16:51:19.654Z,98714.92
2024-04-12T16:53:47.623Z,98709.16
2024-04-12T16:56:15.738Z,98713.15
2024-04-12T16:58:43.572Z,98716.44
2024-04-12T17:01:11.820Z,98717.63
2024-04-12T17:03:40.282Z,98722.27
2024-04-12T17:06:08.457Z,98725.23
2024-04-12T17:08:36.421Z,98723.70
2024-04-12T17:11:04.719Z,98728.56
2024-04-12T17:13:33.931Z,98727.52
2024-04-12T17:16:04.949Z,98725.90
2024-04-12T17:18:34.489Z,98731.48
2024-04-12T17:21:05.693Z,98727.52
2024-04-12T17:23:33.991Z,98730.44
2024-04-12T17:26:05.050Z,98729.38
2024-04-12T17:28:33.062Z,98733.17
2024-04-12T17:31:01.799Z,98733.92
2024-04-12T17:33:31.212Z,98738.54
2024-04-12T17:35:59.377Z,98734.96
2024-04-12T17:38:27.366Z,98739.92
2024-04-12T17:40:55.394Z,98740.95
2024-04-12T17:43:23.343Z,98740.80
2024-04-12T17:45:51.250Z,98742.24
2024-04-12T17:48:19.649Z,98744.58
2024-04-12T17:50:59.699Z,98745.02
2024-04-12T17:53:36.256Z,98743.06
2024-04-12T17:56:07.689Z,98748.19
2024-04-12T17:58:36.615Z,98746.55
2024-04-12T18:01:06.467Z,98751.60
2024-04-12T18:03:34.672Z,98750.41
2024-04-12T18:06:02.975Z,98755.99
2024-04-12T18:08:31.036Z,98753.52
2024-04-12T18:11:04.208Z,98760.56
2024-04-12T18:13:32.658Z,98763.10
2024-04-12T18:16:02.701Z,98760.73
2024-04-12T18:18:30.687Z,98766.29
2024-04-12T18:21:05.144Z,98761.75
2024-04-12T18:23:33.114Z,98762.44
2024-04-12T18:26:01.339Z,98763.84
2024-04-12T18:28:29.634Z,98767.34
2024-04-12T18:30:57.745Z,98766.44
2024-04-12T18:33:26.206Z,98765.86
2024-04-12T18:35:55.361Z,98766.56
2024-04-12T18:38:42.022Z,98769.73
2024-04-12T18:41:28.772Z,98769.44
2024-04-12T18:44:15.594Z,98772.98
2024-04-12T18:46:43.464Z,98772.14
2024-04-12T18:49:11.599Z,98775.55
2024-04-12T18:51:39.607Z,98775.61
2024-04-12T18:54:07.543Z,98775.50
2024-04-12T18:56:37.347Z,98776.70
2024-04-12T18:59:06.501Z,98774.77
2024-04-12T19:01:35.190Z,98778.45
2024-04-12T19:04:03.492Z,98778.33
2024-04-12T19:06:33.106Z,98781.02
2024-04-12T19:09:01.205Z,98779.29
2024-04-12T19:11:30.610Z,98777.11
2024-04-12T19:14:00.395Z,98777.20
2024-04-12T19:16:28.320Z,98778.15
2024-04-12T19:18:56.463Z,98776.30
2024-04-12T19:21:26.175Z,98782.23
2024-04-12T19:23:55.648Z,98778.06
2024-04-12T19:26:23.664Z,98777.48
2024-04-12T19:28:52.143Z,98777.86
2024-04-12T19:31:20.042Z,98778.40
2024-04-12T19:33:49.562Z,98776.92
2024-04-12T19:36:17.780Z,98781.89
2024-04-12T19:38:45.688Z,98774.68
2024-04-12T19:41:15.840Z,98777.05
2024-04-12T19:43:46.680Z,98777.48
2024-04-12T19:46:16.163Z,98781.31
2024-04-12T19:48:44.577Z,98784.38
2024-04-12T19:51:12.889Z,98790.45
2024-04-12T19:53:40.967Z,98790.77
2024-04-12T19:56:09.267Z,98794.44
2024-04-12T19:58:38.561Z,98789.09
2024-04-12T20:01:11.059Z,98794.91
2024-04-12T20:03:39.664Z,98793.48
2024-04-12T20:06:07.992Z,98790.95
2024-04-12T20:08:36.553Z,98789.14
2024-04-12T20:11:06.346Z,98790.20
2024-04-12T20:13:35.977Z,98792.23
2024-04-12T20:16:07.115Z,98792.07
2024-04-12T20:18:37.432Z,98794.06
2024-04-12T20:21:07.591Z,98789.61
2024-04-12T20:23:36.281Z,98791.31
2024-04-12T20:26:14.118Z,98792.28
2024-04-12T20:28:47.810Z,98794.73
2024-04-12T20:31:23.580Z,98794.36
2024-04-12T20:34:04.690Z,98795.61
2024-04-12T20:36:46.571Z,98797.68
2024-04-12T20:39:19.072Z,98798.66
2024-04-12T20:41:49.649Z,98798.70
2024-04-12T20:44:19.681Z,98802.89
2024-04-12T20:46:49.385Z,98803.79
2024-04-12T20:49:18.362Z,98807.41
2024-04-12T20:51:48.500Z,98808.92
2024-04-12T20:54:17.086Z,98807.39
2024-04-12T20:56:46.019Z,98808.73
2024-04-12T20:59:14.259Z,98807.30
2024-04-12T21:01:45.957Z,98803.13
2024-04-12T21:04:15.608Z,98801.55
2024-04-12T21:06:44.789Z,98797.40
2024-04-12T21:09:17.161Z,98797.64
2024-04-12T21:11:46.067Z,98801.55
2024-04-12T21:14:14.816Z,98798.67
2024-04-12T21:16:44.391Z,98799.48
2024-04-12T21:19:13.741Z,98798.66
2024-04-12T21:21:41.680Z,98794.79
2024-04-12T21:24:11.060Z,98796.44
2024-04-12T21:26:39.204Z,98795.05
2024-04-12T21:29:07.204Z,98794.99
2024-04-12T21:31:35.114Z,98797.61
2024-04-12T21:34:03.074Z,98798.96
2024-04-12T21:36:30.979Z,98800.52
2024-04-12T21:38:59.768Z,98802.61
2024-04-12T21:41:27.985Z,98804.97
2024-04-12T21:43:56.012Z,98805.96
2024-04-12T21:46:25.478Z,98809.77
2024-04-12T21:48:54.649Z,98808.09
2024-04-12T21:51:31.908Z,98809.76
2024-04-12T21:54:01.390Z,98811.80
2024-04-12T21:56:29.509Z,98808.30
2024-04-12T21:58:59.823Z,98810.38
2024-04-12T22:01:28.432Z,98811.34
2024-04-12T22:03:56.455Z,98811.41
2024-04-12T22:06:24.485Z,98809.03
2024-04-12T22:08:55.252Z,98806.01
2024-04-12T22:11:24.914Z,98803.38
2024-04-12T22:13:53.036Z,98801.98
2024-04-12T22:16:20.962Z,98802.16
2024-04-12T22:18:48.977Z,98802.21
2024-04-12T22:21:17.972Z,98803.69
2024-04-12T22:23:49.189Z,98803.85
2024-04-12T22:26:19.224Z,98802.85
2024-04-12T22:28:48.219Z,98804.55
2024-04-12T22:31:19.483Z,98807.35
2024-04-12T22:33:50.504Z,98808.45
2024-04-12T22:36:22.275Z,98801.91
2024-04-12T22:38:51.219Z,98799.18
2024-04-12T22:41:20.283Z,98801.12
2024-04-12T22:43:49.569Z,98805.41
2024-04-12T22:46:17.517Z,98801.59
2024-04-12T22:48:46.130Z,98801.69
2024-04-12T22:51:26.304Z,98804.67
2024-04-12T22:53:54.552Z,98801.67
2024-04-12T22:56:25.334Z,98799.08
2024-04-12T22:58:57.746Z,98799.60
2024-04-12T23:01:29.308Z,98793.52
2024-04-12T23:04:00.663Z,98796.35
2024-04-12T23:06:28.809Z,98795.34
2024-04-12T23:08:56.854Z,98793.58
2024-04-12T23:11:24.936Z,98790.75
2024-04-12T23:13:53.586Z,98789.58
2024-04-12T23:16:21.632Z,98783.67
2024-04-12T23:18:53.462Z,98786.89
2024-04-12T23:21:21.889Z,98783.10
2024-04-12T23:23:49.737Z,98780.34
2024-04-12T23:26:17.593Z,98784.46
2024-04-12T23:28:45.542Z,98782.34
2024-04-12T23:31:13.654Z,98777.15
2024-04-12T23:33:41.715Z,98772.90
2024-04-12T23:36:09.687Z,98772.77
2024-04-12T23:38:37.596Z,98771.72
2024-04-12T23:41:05.411Z,98770.56
2024-04-12T23:43:33.340Z,98771.70
2024-04-12T23:46:01.162Z,98771.59
2024-04-12T23:48:29.595Z,98772.02
2024-04-12T23:50:57.806Z,98773.44
2024-04-12T23:53:26.351Z,98770.27
2024-04-12T23:55:54.259Z,98770.00
2024-04-12T23:58:22.222Z,98771.02
